Time;durP1;ratioP1;P1;durP2;ratioP2;P2;SDS_P1;SDS_P2;PMS_P1;PMS_P2;Temp;Humidity;BMP_temperature;BMP_pressure;BME280_temperature;BME280_humidity;BME280_pressure;Samples;Min_cycle;Max_cycle;Signal;HPM_P1;HPM_P2
2021/03/28 00:00:22;;;;;;;9.10;3.70;;;6.70;91.00;;;;;;5044481;28;20505;-73
2021/03/28 00:02:56;;;;;;;7.22;3.15;;;6.80;91.10;;;;;;5043528;28;20386;-73
2021/03/28 00:05:21;;;;;;;6.93;3.50;;;6.70;91.00;;;;;;5046809;28;20037;-72
2021/03/28 00:08:14;;;;;;;8.40;3.30;;;6.70;91.00;;;;;;5025200;28;20033;-74
2021/03/28 00:10:44;;;;;;;6.80;3.58;;;6.70;91.10;;;;;;5050055;28;20033;-74
2021/03/28 00:13:16;;;;;;;9.27;3.25;;;6.70;91.00;;;;;;5040405;28;20354;-74
2021/03/28 00:16:02;;;;;;;6.05;3.42;;;6.70;91.10;;;;;;5050669;28;20098;-74
2021/03/28 00:18:33;;;;;;;6.85;3.05;;;6.70;91.10;;;;;;5015615;28;20394;-73
2021/03/28 00:21:20;;;;;;;4.72;3.25;;;6.70;91.20;;;;;;5014277;28;20489;-73
2021/03/28 00:23:54;;;;;;;5.88;3.50;;;6.70;91.10;;;;;;5015835;28;20406;-73
2021/03/28 00:26:30;;;;;;;8.13;3.70;;;6.60;91.20;;;;;;5033736;28;20084;-73
2021/03/28 00:29:12;;;;;;;8.43;3.83;;;6.70;91.30;;;;;;5033078;28;20424;-73
2021/03/28 00:31:56;;;;;;;6.70;3.15;;;6.70;91.30;;;;;;5033575;28;20033;-73
2021/03/28 00:34:30;;;;;;;6.28;3.45;;;6.60;91.20;;;;;;5039268;28;20469;-73
2021/03/28 00:36:59;;;;;;;8.25;3.28;;;6.60;91.20;;;;;;5033328;28;20032;-77
2021/03/28 00:39:34;;;;;;;7.50;3.38;;;6.60;91.30;;;;;;5040015;28;20545;-73
2021/03/28 00:42:05;;;;;;;9.43;3.20;;;6.60;91.20;;;;;;5013729;28;20033;-74
2021/03/28 00:44:34;;;;;;;9.90;3.50;;;6.70;91.20;;;;;;5030327;28;20489;-72
2021/03/28 00:47:03;;;;;;;8.27;3.45;;;6.70;91.20;;;;;;5033400;28;20026;-74
2021/03/28 00:49:39;;;;;;;8.18;3.15;;;6.60;91.20;;;;;;5031964;28;20040;-75
2021/03/28 00:52:14;;;;;;;7.13;3.65;;;6.70;91.10;;;;;;5013341;28;20030;-74
2021/03/28 00:54:49;;;;;;;6.93;3.08;;;6.70;91.20;;;;;;5023035;28;20620;-74
2021/03/28 00:57:30;;;;;;;5.78;3.05;;;6.70;91.20;;;;;;5032681;28;20025;-75
2021/03/28 01:00:11;;;;;;;6.55;3.50;;;6.60;91.10;;;;;;5037116;28;20506;-73
2021/03/28 01:02:51;;;;;;;8.68;3.30;;;6.60;91.20;;;;;;5034205;28;20029;-73
2021/03/28 01:05:41;;;;;;;5.47;2.90;;;6.60;91.10;;;;;;5041039;28;20045;-73
2021/03/28 01:08:22;;;;;;;5.65;2.90;;;6.60;91.10;;;;;;5033143;28;20029;-73
2021/03/28 01:11:19;;;;;;;7.63;3.28;;;6.60;91.10;;;;;;5035193;28;20037;-73
2021/03/28 01:14:20;;;;;;;7.93;3.00;;;6.60;91.10;;;;;;5031171;28;20026;-73
2021/03/28 01:17:18;;;;;;;10.20;3.55;;;6.60;91.00;;;;;;5032716;28;20034;-74
2021/03/28 01:20:15;;;;;;;8.40;3.22;;;6.60;91.20;;;;;;5040719;28;20040;-73
2021/03/28 01:23:11;;;;;;;7.45;2.80;;;6.60;91.20;;;;;;5052731;28;20032;-74
2021/03/28 01:25:49;;;;;;;8.07;3.40;;;6.60;91.10;;;;;;5043014;28;20048;-74
2021/03/28 01:28:26;;;;;;;8.88;3.05;;;6.50;91.30;;;;;;5034983;28;20562;-73
2021/03/28 01:30:56;;;;;;;9.80;3.63;;;6.50;91.10;;;;;;5049850;28;20104;-74
2021/03/28 01:33:44;;;;;;;6.80;3.55;;;6.50;91.10;;;;;;5047457;28;20030;-73
2021/03/28 01:36:20;;;;;;;9.65;3.33;;;6.50;91.20;;;;;;5027700;28;20044;-73
2021/03/28 01:39:04;;;;;;;7.43;2.90;;;6.50;91.10;;;;;;5032254;28;20056;-73
2021/03/28 01:41:34;;;;;;;6.45;3.25;;;6.50;91.20;;;;;;5015141;28;20044;-73
2021/03/28 01:44:07;;;;;;;13.05;5.32;;;6.40;91.20;;;;;;5039137;28;20056;-74
2021/03/28 01:47:01;;;;;;;8.82;3.33;;;6.50;91.30;;;;;;5043479;28;20033;-74
2021/03/28 01:49:56;;;;;;;5.78;3.22;;;6.50;91.50;;;;;;5036168;28;20025;-74
2021/03/28 01:52:35;;;;;;;8.88;3.20;;;6.40;91.30;;;;;;5031204;28;20040;-74
2021/03/28 01:55:11;;;;;;;13.30;3.40;;;6.40;91.30;;;;;;5011078;28;20102;-74
2021/03/28 01:58:12;;;;;;;9.48;3.35;;;6.40;91.30;;;;;;4997292;28;20033;-74
2021/03/28 02:00:59;;;;;;;7.05;3.53;;;6.40;91.30;;;;;;5035052;28;20138;-74
2021/03/28 02:03:45;;;;;;;7.00;3.03;;;6.40;91.30;;;;;;5042816;28;20045;-74
2021/03/28 02:06:31;;;;;;;10.07;3.28;;;6.40;91.40;;;;;;5031591;28;20061;-74
2021/03/28 02:09:24;;;;;;;7.32;3.13;;;6.40;91.30;;;;;;5031527;28;20030;-74
2021/03/28 02:12:04;;;;;;;8.73;2.85;;;6.40;91.30;;;;;;5038625;28;20045;-74
2021/03/28 02:14:48;;;;;;;8.15;3.38;;;6.40;91.30;;;;;;5014115;28;20029;-74
2021/03/28 02:17:42;;;;;;;7.47;3.45;;;6.40;91.40;;;;;;5037621;28;20029;-74
2021/03/28 02:20:21;;;;;;;9.95;4.20;;;6.40;91.40;;;;;;5029873;28;20029;-74
2021/03/28 02:22:51;;;;;;;7.50;2.92;;;6.30;91.40;;;;;;5038192;28;20044;-74
2021/03/28 02:25:38;;;;;;;7.72;3.33;;;6.30;91.50;;;;;;5031723;28;20285;-74
2021/03/28 02:28:14;;;;;;;8.57;3.45;;;6.30;91.50;;;;;;5036527;28;20087;-74
2021/03/28 02:30:43;;;;;;;7.60;3.22;;;6.30;91.50;;;;;;5035289;28;20029;-74
2021/03/28 02:33:17;;;;;;;9.20;3.35;;;6.30;91.50;;;;;;5034997;28;20025;-73
2021/03/28 02:36:16;;;;;;;7.97;2.80;;;6.30;91.50;;;;;;5035662;28;20497;-74
2021/03/28 02:39:00;;;;;;;13.95;3.38;;;6.30;91.60;;;;;;5030255;28;20033;-74
2021/03/28 02:41:43;;;;;;;8.48;3.40;;;6.30;91.60;;;;;;5037260;28;20025;-73
2021/03/28 02:44:51;;;;;;;8.27;3.45;;;6.20;91.60;;;;;;5031026;28;20033;-73
2021/03/28 02:48:00;;;;;;;8.65;3.67;;;6.30;91.60;;;;;;5018227;28;20091;-72
2021/03/28 02:50:44;;;;;;;8.80;3.70;;;6.20;91.50;;;;;;5017226;28;20028;-73
2021/03/28 02:53:53;;;;;;;8.65;3.72;;;6.20;91.60;;;;;;5037964;28;20029;-74
2021/03/28 02:56:43;;;;;;;9.77;3.53;;;6.20;91.70;;;;;;5042558;28;20060;-74
2021/03/28 02:59:27;;;;;;;9.50;3.40;;;6.10;91.60;;;;;;5031041;28;20529;-74
2021/03/28 03:02:16;;;;;;;10.23;3.30;;;6.20;91.60;;;;;;5027148;28;20029;-74
2021/03/28 03:05:11;;;;;;;10.68;3.65;;;6.10;91.60;;;;;;5013181;28;20061;-73
2021/03/28 03:07:37;;;;;;;;;;;6.10;91.60;;;;;;5012180;28;20037;-74
2021/03/28 03:10:19;;;;;;;9.32;4.15;;;6.10;91.40;;;;;;5013343;28;19913;-74
2021/03/28 03:13:14;;;;;;;6.55;3.00;;;6.10;91.70;;;;;;5031320;28;20040;-73
2021/03/28 03:16:06;;;;;;;11.30;3.55;;;6.10;91.60;;;;;;5034108;28;20090;-73
2021/03/28 03:19:05;;;;;;;10.82;3.65;;;6.00;91.60;;;;;;5011497;28;20037;-73
2021/03/28 03:21:48;;;;;;;9.43;3.53;;;6.00;91.60;;;;;;5040416;28;20033;-73
2021/03/28 03:24:44;;;;;;;9.32;4.05;;;5.90;91.60;;;;;;5051281;28;20037;-73
2021/03/28 03:27:54;;;;;;;7.28;3.30;;;5.90;91.70;;;;;;5010662;28;20092;-73
2021/03/28 03:30:38;;;;;;;8.95;2.90;;;5.90;91.70;;;;;;5019997;28;20100;-73
2021/03/28 03:33:31;;;;;;;7.38;3.22;;;5.90;91.60;;;;;;5053508;28;20025;-73
2021/03/28 03:36:31;;;;;;;11.60;3.42;;;5.90;91.70;;;;;;5044124;28;20033;-74
2021/03/28 03:39:22;;;;;;;15.50;3.90;;;6.00;91.60;;;;;;5047551;28;20112;-75
2021/03/28 03:42:28;;;;;;;9.52;3.53;;;5.90;91.60;;;;;;5043577;28;20071;-74
2021/03/28 03:45:18;;;;;;;8.18;3.83;;;5.90;91.70;;;;;;5045077;28;20073;-75
2021/03/28 03:48:09;;;;;;;10.40;3.35;;;5.90;91.60;;;;;;5040688;28;20040;-75
2021/03/28 03:50:56;;;;;;;7.38;3.35;;;5.90;91.60;;;;;;5043120;28;20039;-75
2021/03/28 03:53:33;;;;;;;7.25;3.30;;;5.80;91.70;;;;;;5060588;28;20088;-74
2021/03/28 03:56:20;;;;;;;9.75;4.25;;;5.80;91.60;;;;;;5037813;28;20055;-74
2021/03/28 03:59:24;;;;;;;6.75;3.90;;;5.80;91.60;;;;;;5058670;28;20049;-72
2021/03/28 04:02:18;;;;;;;8.50;3.75;;;5.80;91.70;;;;;;5026010;28;20033;-72
2021/03/28 04:05:06;;;;;;;10.25;3.60;;;5.70;91.70;;;;;;5032725;28;20044;-72
2021/03/28 04:07:54;;;;;;;10.15;4.07;;;5.70;91.70;;;;;;5008208;28;20025;-71
2021/03/28 04:10:57;;;;;;;9.13;3.47;;;5.70;91.70;;;;;;5019275;28;20053;-72
2021/03/28 04:13:40;;;;;;;7.72;3.30;;;5.70;91.60;;;;;;5019359;28;20378;-69
2021/03/28 04:16:17;;;;;;;10.77;3.53;;;5.70;91.70;;;;;;5041237;28;20033;-69
2021/03/28 04:19:03;;;;;;;8.07;3.50;;;5.60;91.70;;;;;;5034215;28;20037;-69
2021/03/28 04:22:00;;;;;;;13.00;3.95;;;5.70;91.80;;;;;;5044224;28;20082;-69
2021/03/28 04:24:43;;;;;;;7.75;3.53;;;5.70;91.70;;;;;;4996583;28;20079;-69
2021/03/28 04:27:35;;;;;;;10.18;3.88;;;5.60;91.70;;;;;;5044692;28;20030;-68
2021/03/28 04:30:01;;;;;;;10.55;3.20;;;5.70;91.70;;;;;;5032286;28;20057;-69
2021/03/28 04:32:40;;;;;;;7.03;3.53;;;5.60;91.60;;;;;;5035081;28;20524;-70
2021/03/28 04:35:28;;;;;;;9.75;3.75;;;5.70;91.60;;;;;;5032557;28;20026;-70
2021/03/28 04:38:16;;;;;;;8.45;3.70;;;5.70;91.60;;;;;;5041561;28;20033;-69
2021/03/28 04:41:26;;;;;;;6.65;3.25;;;5.60;91.60;;;;;;5037580;28;20060;-70
2021/03/28 04:44:13;;;;;;;7.85;3.28;;;5.60;91.50;;;;;;5033573;28;20033;-69
2021/03/28 04:47:06;;;;;;;7.90;3.65;;;5.60;91.50;;;;;;5022907;28;20485;-69
2021/03/28 04:49:46;;;;;;;8.40;3.50;;;5.60;91.60;;;;;;5018774;28;20022;-68
2021/03/28 04:52:43;;;;;;;9.30;3.60;;;5.60;91.60;;;;;;5040359;28;20026;-69
2021/03/28 04:55:33;;;;;;;7.78;3.38;;;5.60;91.60;;;;;;5033033;28;20040;-69
2021/03/28 04:58:16;;;;;;;6.38;3.75;;;5.60;91.60;;;;;;5038653;28;20096;-69
2021/03/28 05:01:09;;;;;;;11.98;3.47;;;5.50;91.50;;;;;;5029247;28;20025;-69
2021/03/28 05:04:00;;;;;;;7.72;3.42;;;5.60;91.50;;;;;;5053248;28;20031;-69
2021/03/28 05:06:54;;;;;;;8.98;3.55;;;5.60;91.50;;;;;;5038973;28;20127;-69
2021/03/28 05:09:48;;;;;;;11.43;4.05;;;5.60;91.60;;;;;;5033484;28;20029;-68
2021/03/28 05:12:26;;;;;;;7.70;3.60;;;5.60;91.60;;;;;;5049780;28;20029;-69
2021/03/28 05:15:21;;;;;;;7.63;3.63;;;5.60;91.60;;;;;;5047660;28;20272;-69
2021/03/28 05:18:31;;;;;;;5.97;3.60;;;5.60;91.60;;;;;;5033137;28;20030;-69
2021/03/28 05:21:15;;;;;;;8.13;4.03;;;5.60;91.60;;;;;;5038040;28;20033;-69
2021/03/28 05:23:59;;;;;;;7.30;3.35;;;5.60;91.70;;;;;;5051117;28;20044;-69
2021/03/28 05:26:53;;;;;;;10.23;4.20;;;5.60;91.70;;;;;;5046291;28;20045;-69
2021/03/28 05:29:54;;;;;;;10.20;4.35;;;5.70;91.70;;;;;;5032393;28;20033;-69
2021/03/28 05:32:57;;;;;;;11.65;4.00;;;5.70;91.60;;;;;;5044414;28;20088;-69
2021/03/28 05:35:49;;;;;;;11.02;4.50;;;5.70;91.50;;;;;;5034396;28;20056;-69
2021/03/28 05:38:59;;;;;;;10.68;3.80;;;5.70;91.50;;;;;;5048103;28;20546;-69
2021/03/28 05:42:09;;;;;;;7.85;3.85;;;5.70;91.50;;;;;;5042357;28;20539;-68
2021/03/28 05:45:11;;;;;;;9.00;4.20;;;5.80;91.40;;;;;;5037506;28;20041;-68
2021/03/28 05:47:59;;;;;;;9.40;4.10;;;5.80;91.40;;;;;;5011266;28;20408;-67
2021/03/28 05:50:25;;;;;;;9.10;3.85;;;5.80;91.40;;;;;;5016656;28;20049;-68
2021/03/28 05:53:35;;;;;;;9.68;4.13;;;5.80;91.40;;;;;;5032400;28;20056;-69
2021/03/28 05:56:38;;;;;;;9.43;4.20;;;5.90;91.40;;;;;;5021554;28;20039;-69
2021/03/28 05:59:37;;;;;;;11.10;3.97;;;5.90;91.30;;;;;;5039192;28;20394;-69
2021/03/28 06:02:40;;;;;;;7.32;3.75;;;5.90;91.30;;;;;;5029490;28;20026;-70
2021/03/28 06:05:43;;;;;;;7.25;3.88;;;5.90;91.30;;;;;;5030305;28;20394;-71
2021/03/28 06:08:30;;;;;;;9.38;4.00;;;5.90;91.20;;;;;;5039403;28;20486;-69
2021/03/28 06:11:40;;;;;;;12.02;4.45;;;5.90;91.20;;;;;;5036897;28;20417;-77
2021/03/28 06:14:34;;;;;;;9.95;4.20;;;6.00;91.30;;;;;;5040997;28;20033;-71
2021/03/28 06:17:30;;;;;;;7.70;3.50;;;6.00;91.20;;;;;;5033181;28;20433;-73
2021/03/28 06:20:18;;;;;;;7.75;3.70;;;6.10;91.20;;;;;;5019660;28;20030;-72
2021/03/28 06:23:15;;;;;;;8.75;3.75;;;6.20;91.20;;;;;;5020874;28;20381;-72
2021/03/28 06:26:22;;;;;;;7.63;3.90;;;6.30;91.20;;;;;;5048365;28;20037;-74
2021/03/28 06:29:13;;;;;;;7.70;3.85;;;6.30;91.10;;;;;;5036731;28;20374;-74
2021/03/28 06:32:10;;;;;;;6.60;4.20;;;6.40;91.00;;;;;;5048371;28;20033;-74
2021/03/28 06:35:20;;;;;;;12.52;4.28;;;6.50;90.80;;;;;;5051624;28;20543;-74
2021/03/28 06:37:51;;;;;;;7.43;3.70;;;6.60;90.70;;;;;;5011748;28;20056;-74
2021/03/28 06:40:42;;;;;;;7.28;3.90;;;6.70;90.80;;;;;;5016067;28;20498;-73
2021/03/28 06:43:58;;;;;;;6.57;3.65;;;6.70;90.40;;;;;;5051486;28;20044;-72
2021/03/28 06:46:41;;;;;;;;;;;6.80;90.40;;;;;;5042262;28;20497;-73
2021/03/28 06:49:33;;;;;;;8.43;4.25;;;6.90;90.50;;;;;;5048984;28;19908;-72
2021/03/28 06:52:24;;;;;;;7.07;3.85;;;6.90;90.30;;;;;;5047564;28;20485;-71
2021/03/28 06:55:28;;;;;;;7.00;3.42;;;7.00;90.20;;;;;;5011652;28;20152;-71
2021/03/28 06:58:39;;;;;;;9.00;4.55;;;7.10;90.10;;;;;;5011810;28;20057;-73
2021/03/28 07:01:41;;;;;;;7.93;4.20;;;7.10;90.10;;;;;;5022072;28;20113;-71
2021/03/28 07:04:44;;;;;;;13.48;3.97;;;7.10;90.00;;;;;;5018195;28;20065;-72
2021/03/28 07:07:29;;;;;;;6.70;3.78;;;7.30;90.00;;;;;;5051307;28;20061;-71
2021/03/28 07:10:07;;;;;;;9.53;4.47;;;7.40;89.70;;;;;;5050968;28;20112;-72
2021/03/28 07:13:08;;;;;;;10.30;4.18;;;7.40;89.50;;;;;;5037611;28;20264;-72
2021/03/28 07:16:11;;;;;;;10.00;4.53;;;7.50;89.20;;;;;;5040705;28;20108;-69
2021/03/28 07:19:10;;;;;;;7.40;4.00;;;7.60;89.10;;;;;;5037821;28;20482;-68
2021/03/28 07:22:04;;;;;;;7.57;3.92;;;7.70;88.40;;;;;;5046473;28;20037;-73
2021/03/28 07:25:24;;;;;;;10.82;3.80;;;7.80;88.20;;;;;;5053278;28;20025;-73
2021/03/28 07:28:24;;;;;;;10.18;4.63;;;7.90;87.70;;;;;;5017693;28;20026;-73
2021/03/28 07:31:01;;;;;;;9.05;4.53;;;8.10;87.10;;;;;;5036974;28;20056;-73
2021/03/28 07:33:49;;;;;;;8.93;4.05;;;8.20;86.90;;;;;;5057509;28;20033;-73
2021/03/28 07:36:36;;;;;;;7.20;4.18;;;8.30;86.40;;;;;;5042894;28;20485;-74
2021/03/28 07:39:31;;;;;;;8.68;4.15;;;8.30;86.00;;;;;;5054991;28;20043;-72
2021/03/28 07:42:35;;;;;;;8.60;3.67;;;8.40;86.00;;;;;;5034795;28;20033;-73
2021/03/28 07:45:40;;;;;;;8.48;3.42;;;8.60;85.40;;;;;;5037685;28;20052;-71
2021/03/28 07:48:47;;;;;;;10.13;3.63;;;8.70;85.00;;;;;;5025631;28;20032;-71
2021/03/28 07:51:59;;;;;;;10.23;4.20;;;8.80;84.50;;;;;;5043942;28;20020;-71
2021/03/28 07:54:52;;;;;;;10.63;4.32;;;8.90;84.40;;;;;;5053062;28;20517;-71
2021/03/28 07:57:45;;;;;;;11.80;4.05;;;9.00;84.10;;;;;;5054453;28;20033;-71
2021/03/28 08:00:48;;;;;;;8.80;3.97;;;9.10;83.40;;;;;;5020288;28;20057;-71
2021/03/28 08:03:32;;;;;;;12.63;4.47;;;9.30;82.90;;;;;;5043631;28;20036;-71
2021/03/28 08:06:13;;;;;;;9.20;4.03;;;9.40;82.20;;;;;;5034157;28;20410;-70
2021/03/28 08:09:02;;;;;;;9.00;4.00;;;9.40;81.70;;;;;;5037317;28;20025;-71
2021/03/28 08:11:48;;;;;;;7.10;3.60;;;9.60;80.50;;;;;;5018859;28;20470;-70
2021/03/28 08:14:34;;;;;;;9.05;3.72;;;9.70;80.90;;;;;;5037551;28;20025;-70
2021/03/28 08:17:37;;;;;;;12.00;4.35;;;9.90;80.10;;;;;;5021856;28;20029;-71
2021/03/28 08:20:30;;;;;;;6.60;3.55;;;10.00;79.80;;;;;;5031255;28;20049;-70
2021/03/28 08:23:30;;;;;;;9.32;3.67;;;10.20;79.80;;;;;;5031321;28;20490;-69
2021/03/28 08:26:25;;;;;;;7.65;3.40;;;10.30;77.70;;;;;;5033748;28;20047;-69
2021/03/28 08:29:16;;;;;;;11.05;3.80;;;10.40;77.00;;;;;;5034159;28;20053;-70
2021/03/28 08:32:04;;;;;;;9.70;3.70;;;10.50;76.30;;;;;;5040838;28;20079;-70
2021/03/28 08:35:03;;;;;;;6.93;3.38;;;10.60;75.40;;;;;;5033852;28;20029;-70
2021/03/28 08:37:58;;;;;;;10.23;3.80;;;10.70;74.70;;;;;;5025840;28;20041;-70
2021/03/28 08:40:38;;;;;;;8.13;3.45;;;10.70;74.20;;;;;;5018078;28;20017;-70
2021/03/28 08:43:54;;;;;;;12.85;4.30;;;10.80;73.80;;;;;;5037295;28;20094;-70
2021/03/28 08:46:47;;;;;;;10.07;4.78;;;10.80;73.50;;;;;;5036558;28;20482;-70
2021/03/28 08:49:40;;;;;;;7.93;3.90;;;10.90;73.20;;;;;;5031501;28;20036;-70
2021/03/28 08:52:33;;;;;;;10.98;3.53;;;11.00;72.40;;;;;;5034250;28;20111;-70
2021/03/28 08:55:20;;;;;;;6.78;3.17;;;11.20;72.00;;;;;;5013665;28;20041;-70
2021/03/28 08:58:18;;;;;;;17.63;4.40;;;11.30;71.50;;;;;;5026159;28;20474;-70
2021/03/28 09:01:12;;;;;;;10.00;3.47;;;11.30;71.30;;;;;;5002420;28;20060;-70
2021/03/28 09:04:11;;;;;;;9.77;3.30;;;11.40;70.30;;;;;;5027063;28;20505;-70
2021/03/28 09:06:59;;;;;;;10.23;3.83;;;11.50;69.40;;;;;;5036915;28;20033;-70
2021/03/28 09:10:05;;;;;;;10.25;3.78;;;11.50;69.20;;;;;;5033183;28;20022;-70
2021/03/28 09:12:52;;;;;;;7.93;3.08;;;11.60;68.60;;;;;;5019953;28;20122;-70
2021/03/28 09:15:38;;;;;;;8.95;3.92;;;11.60;68.50;;;;;;5024666;28;20073;-74
2021/03/28 09:18:23;;;;;;;9.63;3.22;;;11.60;67.90;;;;;;5016842;28;20034;-69
2021/03/28 09:20:57;;;;;;;10.60;3.55;;;11.70;68.40;;;;;;5032381;28;20083;-69
2021/03/28 09:24:00;;;;;;;8.63;3.42;;;11.80;67.40;;;;;;5032748;28;20025;-69
2021/03/28 09:26:42;;;;;;;6.07;3.03;;;11.90;67.30;;;;;;5030744;28;20033;-68
2021/03/28 09:29:17;;;;;;;11.55;3.95;;;12.00;66.90;;;;;;5021855;28;20113;-69
2021/03/28 09:32:20;;;;;;;8.60;3.53;;;12.10;66.50;;;;;;5037952;28;20029;-76
2021/03/28 09:35:01;;;;;;;8.85;3.03;;;12.10;65.90;;;;;;5004865;28;20034;-69
2021/03/28 09:37:37;;;;;;;9.80;3.10;;;12.20;65.40;;;;;;5044700;28;20090;-70
2021/03/28 09:40:10;;;;;;;9.23;3.63;;;12.20;65.00;;;;;;5036628;28;20083;-68
2021/03/28 09:43:05;;;;;;;9.40;3.58;;;12.30;64.80;;;;;;5043824;28;20029;-75
2021/03/28 09:45:51;;;;;;;6.60;2.83;;;12.40;64.50;;;;;;5033975;28;20039;-71
2021/03/28 09:48:48;;;;;;;11.32;4.55;;;12.40;63.50;;;;;;5032674;28;20026;-71
2021/03/28 09:51:40;;;;;;;9.55;3.80;;;12.40;63.20;;;;;;5032356;28;20029;-71
2021/03/28 09:54:25;;;;;;;11.82;4.57;;;12.50;62.50;;;;;;5030419;28;20025;-72
2021/03/28 09:56:59;;;;;;;;;;;12.60;61.70;;;;;;5030815;28;20025;-72
2021/03/28 09:59:50;;;;;;;8.48;4.15;;;12.70;63.10;;;;;;5032014;28;19963;-72
2021/03/28 10:02:22;;;;;;;8.05;3.75;;;12.70;61.90;;;;;;5031463;28;20030;-71
2021/03/28 10:05:04;;;;;;;12.05;3.72;;;12.80;61.50;;;;;;5029842;28;20060;-72
2021/03/28 10:08:04;;;;;;;9.65;3.90;;;12.80;61.60;;;;;;5049553;28;20032;-72
2021/03/28 10:10:33;;;;;;;8.35;3.72;;;12.90;60.80;;;;;;5021376;28;20134;-74
2021/03/28 10:13:34;;;;;;;8.63;3.10;;;12.90;60.50;;;;;;5031810;28;20048;-73
2021/03/28 10:16:21;;;;;;;7.22;3.40;;;12.90;60.30;;;;;;5012581;28;20363;-72
2021/03/28 10:19:11;;;;;;;5.60;3.10;;;13.00;58.80;;;;;;5026301;28;20045;-72
2021/03/28 10:21:46;;;;;;;8.15;3.03;;;12.90;58.80;;;;;;5022459;28;20541;-73
2021/03/28 10:24:17;;;;;;;8.52;3.58;;;13.00;59.20;;;;;;5028470;28;20087;-68
2021/03/28 10:27:22;;;;;;;7.72;3.00;;;13.00;59.20;;;;;;5030621;28;20540;-69
2021/03/28 10:30:03;;;;;;;11.57;3.03;;;13.10;59.40;;;;;;5040405;28;20049;-70
2021/03/28 10:33:03;;;;;;;9.13;3.70;;;13.10;59.80;;;;;;5048188;28;20025;-69
2021/03/28 10:36:06;;;;;;;6.50;2.72;;;13.20;59.30;;;;;;5018392;28;20037;-69
2021/03/28 10:38:43;;;;;;;10.07;3.10;;;13.30;57.90;;;;;;5031999;28;20371;-69
2021/03/28 10:41:29;;;;;;;5.97;2.60;;;13.40;56.50;;;;;;5030137;28;20128;-71
2021/03/28 10:44:09;;;;;;;6.63;2.65;;;13.50;56.10;;;;;;5030601;28;20021;-69
2021/03/28 10:46:53;;;;;;;14.77;2.70;;;13.50;55.60;;;;;;5031806;28;20037;-70
2021/03/28 10:49:53;;;;;;;9.65;3.10;;;13.60;56.10;;;;;;5029937;28;20057;-70
2021/03/28 10:53:04;;;;;;;8.43;2.88;;;13.70;55.70;;;;;;4997315;28;20045;-69
2021/03/28 10:56:14;;;;;;;9.73;3.30;;;13.90;54.90;;;;;;5031195;28;20029;-69
2021/03/28 10:59:15;;;;;;;7.22;3.13;;;13.90;54.50;;;;;;5022644;28;20042;-70
2021/03/28 11:02:09;;;;;;;7.40;2.85;;;13.90;54.80;;;;;;5021652;28;20042;-68
2021/03/28 11:05:00;;;;;;;5.63;2.75;;;13.90;54.50;;;;;;5013364;28;20037;-71
2021/03/28 11:07:42;;;;;;;8.98;3.40;;;14.00;54.30;;;;;;5030578;28;20107;-69
2021/03/28 11:10:44;;;;;;;7.78;2.80;;;14.00;53.50;;;;;;5011328;28;20038;-69
2021/03/28 11:13:15;;;;;;;9.13;2.63;;;14.00;53.20;;;;;;5031198;28;20030;-70
2021/03/28 11:16:15;;;;;;;9.55;2.72;;;14.00;53.10;;;;;;5028999;28;20048;-69
2021/03/28 11:19:12;;;;;;;8.07;2.83;;;14.00;53.00;;;;;;5030012;28;20154;-69
2021/03/28 11:22:04;;;;;;;8.45;2.88;;;14.00;53.10;;;;;;4992760;28;20145;-70
2021/03/28 11:24:55;;;;;;;12.00;3.33;;;14.00;53.50;;;;;;5031292;28;20073;-70
2021/03/28 11:27:46;;;;;;;9.60;3.22;;;14.00;52.80;;;;;;5013970;28;20029;-69
2021/03/28 11:30:38;;;;;;;6.65;3.15;;;14.00;53.10;;;;;;5011126;28;20033;-68
2021/03/28 11:33:23;;;;;;;7.82;3.20;;;14.10;53.30;;;;;;5029764;28;20092;-68
2021/03/28 11:35:54;;;;;;;7.25;2.90;;;14.20;53.50;;;;;;5030287;28;20017;-69
2021/03/28 11:38:20;;;;;;;7.88;3.00;;;14.30;53.60;;;;;;5030487;28;20037;-70
2021/03/28 11:40:53;;;;;;;6.35;2.67;;;14.30;53.50;;;;;;5030170;28;20041;-69
2021/03/28 11:43:32;;;;;;;6.78;2.75;;;14.40;53.70;;;;;;5024200;28;20556;-70
2021/03/28 11:46:04;;;;;;;10.23;4.07;;;14.40;53.60;;;;;;5029586;28;20123;-68
2021/03/28 11:49:07;;;;;;;8.13;2.90;;;14.40;53.60;;;;;;5028592;28;20347;-68
2021/03/28 11:51:38;;;;;;;9.57;2.67;;;14.40;53.40;;;;;;5026171;28;20076;-70
2021/03/28 11:54:10;;;;;;;8.20;3.63;;;14.50;53.50;;;;;;5033052;28;20363;-70
2021/03/28 11:56:48;;;;;;;9.25;3.35;;;14.50;53.00;;;;;;5043443;28;20041;-67
2021/03/28 11:59:22;;;;;;;8.23;3.08;;;14.60;53.00;;;;;;5033055;28;20462;-68
2021/03/28 12:02:01;;;;;;;8.48;2.80;;;14.60;52.70;;;;;;5047678;28;20029;-69
2021/03/28 12:04:50;;;;;;;9.18;2.97;;;14.70;52.50;;;;;;5034128;28;20398;-69
2021/03/28 12:07:38;;;;;;;8.57;3.22;;;14.80;52.60;;;;;;5033333;28;20052;-69
2021/03/28 12:10:03;;;;;;;10.20;3.90;;;14.80;52.40;;;;;;5031919;28;20449;-69
2021/03/28 12:12:43;;;;;;;8.00;3.38;;;14.80;52.60;;;;;;5036453;28;20104;-69
2021/03/28 12:15:46;;;;;;;4.72;2.53;;;14.90;53.00;;;;;;5034140;28;20442;-69
2021/03/28 12:18:22;;;;;;;11.57;3.03;;;14.90;52.40;;;;;;5026016;28;20040;-69
2021/03/28 12:21:08;;;;;;;7.68;2.83;;;15.00;52.10;;;;;;5029904;28;20394;-68
2021/03/28 12:23:48;;;;;;;7.22;2.75;;;15.00;52.70;;;;;;5032791;28;20107;-69
2021/03/28 12:26:45;;;;;;;5.22;2.42;;;15.10;52.70;;;;;;5031055;28;20577;-73
2021/03/28 12:29:36;;;;;;;10.02;2.38;;;15.20;52.60;;;;;;5040006;28;20377;-71
2021/03/28 12:32:40;;;;;;;11.68;2.88;;;15.30;52.50;;;;;;5025071;28;20521;-69
2021/03/28 12:35:15;;;;;;;7.80;2.60;;;15.40;52.50;;;;;;5025707;28;20025;-70
2021/03/28 12:37:46;;;;;;;6.88;2.42;;;15.40;52.30;;;;;;5031272;28;20486;-70
2021/03/28 12:40:31;;;;;;;6.80;2.38;;;15.50;52.20;;;;;;5019418;28;20037;-70
2021/03/28 12:42:58;;;;;;;9.20;2.63;;;15.50;51.70;;;;;;5043041;28;20532;-70
2021/03/28 12:45:26;;;;;;;6.18;2.20;;;15.50;51.90;;;;;;5032472;28;20041;-70
2021/03/28 12:48:00;;;;;;;7.60;2.00;;;15.50;51.40;;;;;;5032299;28;20024;-70
2021/03/28 12:50:31;;;;;;;6.30;2.08;;;15.50;51.40;;;;;;5031192;28;20382;-69
2021/03/28 12:53:14;;;;;;;7.60;2.20;;;15.50;51.40;;;;;;5032561;28;20041;-69
2021/03/28 12:55:44;;;;;;;4.30;2.00;;;15.60;51.50;;;;;;5031047;28;20061;-69
2021/03/28 12:58:10;;;;;;;6.85;2.80;;;15.60;51.40;;;;;;5032529;28;20025;-70
2021/03/28 13:00:42;;;;;;;9.85;3.03;;;15.70;51.60;;;;;;5037125;28;20108;-70
2021/03/28 13:03:35;;;;;;;9.38;2.25;;;15.80;51.40;;;;;;5034814;28;20466;-70
2021/03/28 13:06:15;;;;;;;5.80;2.13;;;15.90;51.40;;;;;;5041121;28;20037;-69
2021/03/28 13:08:46;;;;;;;5.53;2.33;;;15.90;51.40;;;;;;5031730;28;20044;-70
2021/03/28 13:11:12;;;;;;;5.75;1.80;;;15.90;51.50;;;;;;5020682;28;20032;-70
2021/03/28 13:13:44;;;;;;;5.85;1.98;;;15.90;51.60;;;;;;5034271;28;20037;-71
2021/03/28 13:16:26;;;;;;;7.38;2.00;;;15.90;51.50;;;;;;5022897;28;20453;-70
2021/03/28 13:18:53;;;;;;;5.88;2.13;;;16.00;51.70;;;;;;5026672;28;20041;-72
2021/03/28 13:21:36;;;;;;;6.10;2.45;;;16.00;51.90;;;;;;5037193;28;20061;-70
2021/03/28 13:24:16;;;;;;;8.57;2.60;;;16.10;51.90;;;;;;5030791;28;20036;-70
2021/03/28 13:27:13;;;;;;;7.78;2.60;;;16.10;51.90;;;;;;5030356;28;20067;-69
2021/03/28 13:29:54;;;;;;;6.85;2.45;;;16.20;51.70;;;;;;5042763;28;20116;-72
2021/03/28 13:32:30;;;;;;;6.63;2.63;;;16.20;51.70;;;;;;5037489;28;20056;-71
2021/03/28 13:35:04;;;;;;;4.88;2.20;;;16.10;51.80;;;;;;5034505;28;20048;-68
2021/03/28 13:37:33;;;;;;;5.87;2.30;;;16.10;51.90;;;;;;5031909;28;20064;-68
2021/03/28 13:40:14;;;;;;;6.63;2.20;;;16.00;51.90;;;;;;5031460;28;20264;-68
2021/03/28 13:43:01;;;;;;;4.35;2.20;;;15.90;52.00;;;;;;5026342;28;20037;-68
2021/03/28 13:45:35;;;;;;;5.95;2.38;;;15.90;52.10;;;;;;5031380;28;20033;-68
2021/03/28 13:48:25;;;;;;;7.22;2.50;;;15.70;52.50;;;;;;5032588;28;20032;-68
2021/03/28 13:51:07;;;;;;;9.00;2.88;;;15.60;52.90;;;;;;5025362;28;20029;-69
2021/03/28 13:53:37;;;;;;;8.98;3.30;;;15.40;53.20;;;;;;5041733;28;20036;-69
2021/03/28 13:56:23;;;;;;;8.63;3.70;;;15.40;53.50;;;;;;5024673;28;20048;-67
2021/03/28 13:59:20;;;;;;;11.38;3.97;;;15.30;54.00;;;;;;5032206;28;20046;-68
2021/03/28 14:02:03;;;;;;;10.20;3.10;;;15.20;54.20;;;;;;5026825;28;20042;-68
2021/03/28 14:04:43;;;;;;;10.30;2.97;;;15.10;54.40;;;;;;5032315;28;20485;-68
2021/03/28 14:07:35;;;;;;;8.63;3.35;;;15.10;54.60;;;;;;5029551;28;20072;-68
2021/03/28 14:10:03;;;;;;;6.43;2.65;;;15.10;54.80;;;;;;5030818;28;20029;-69
2021/03/28 14:12:49;;;;;;;6.47;2.70;;;15.10;54.90;;;;;;5019258;28;20105;-68
2021/03/28 14:15:20;;;;;;;8.10;2.95;;;15.10;55.10;;;;;;5032204;28;20128;-67
2021/03/28 14:18:13;;;;;;;6.93;2.75;;;15.10;55.20;;;;;;5025159;28;20068;-69
2021/03/28 14:20:48;;;;;;;5.93;2.67;;;15.00;55.10;;;;;;5011720;28;20029;-69
2021/03/28 14:23:18;;;;;;;6.35;2.97;;;15.10;55.40;;;;;;5037983;28;20108;-68
2021/03/28 14:25:52;;;;;;;7.70;2.60;;;15.10;55.30;;;;;;5025066;28;20040;-68
2021/03/28 14:28:35;;;;;;;8.80;2.75;;;15.00;55.70;;;;;;5036339;28;20026;-68
2021/03/28 14:31:09;;;;;;;7.07;2.60;;;15.00;56.00;;;;;;5030609;28;20136;-68
2021/03/28 14:34:10;;;;;;;7.85;2.75;;;15.00;55.90;;;;;;5031309;28;20132;-68